createdAt,value
2018-04-19T00:00:45.367Z,68.00
2018-04-19T00:01:46.095Z,78.00
2018-04-19T00:02:46.826Z,83.00
2018-04-19T00:03:47.585Z,53.00
2018-04-19T00:04:48.321Z,61.00
2018-04-19T00:05:49.047Z,63.00
2018-04-19T00:06:49.798Z,78.00
2018-04-19T00:07:50.525Z,62.00
2018-04-19T00:08:51.251Z,55.00
2018-04-19T00:09:51.990Z,56.00
2018-04-19T00:10:52.715Z,66.00
2018-04-19T00:11:53.532Z,65.00
2018-04-19T00:12:54.244Z,76.00
2018-04-19T00:13:54.978Z,65.00
2018-04-19T00:14:55.740Z,69.00
2018-04-19T00:15:56.472Z,61.00
2018-04-19T00:16:57.196Z,66.00
2018-04-19T00:17:57.932Z,59.00
2018-04-19T00:18:58.658Z,65.00
2018-04-19T00:19:59.416Z,64.00
2018-04-19T00:21:00.143Z,56.00
2018-04-19T00:22:00.869Z,58.00
2018-04-19T00:23:01.594Z,66.00
2018-04-19T00:24:02.324Z,74.00
2018-04-19T00:25:03.059Z,70.00
2018-04-19T00:26:03.784Z,65.00
2018-04-19T00:27:04.510Z,74.00
2018-04-19T00:28:05.237Z,57.00
2018-04-19T00:29:05.988Z,82.00
2018-04-19T00:30:06.716Z,79.00
2018-04-19T00:31:07.467Z,64.00
2018-04-19T00:32:08.193Z,68.00
2018-04-19T00:33:08.921Z,64.00
2018-04-19T00:34:09.648Z,58.00
2018-04-19T00:35:10.375Z,58.00
2018-04-19T00:36:11.105Z,78.00
2018-04-19T00:37:11.855Z,54.00
2018-04-19T00:38:12.593Z,69.00
2018-04-19T00:39:13.319Z,51.00
2018-04-19T00:40:14.058Z,67.00
2018-04-19T00:41:14.820Z,73.00
2018-04-19T00:42:15.569Z,66.00
2018-04-19T00:43:16.296Z,58.00
2018-04-19T00:44:17.047Z,51.00
2018-04-19T00:45:17.774Z,50.00
2018-04-19T00:46:18.512Z,68.00
2018-04-19T00:47:19.239Z,65.00
2018-04-19T00:48:19.991Z,63.00
2018-04-19T00:49:20.717Z,59.00
2018-04-19T00:50:21.446Z,54.00
2018-04-19T00:51:22.196Z,42.00
2018-04-19T00:52:22.921Z,59.00
2018-04-19T00:53:23.646Z,53.00
2018-04-19T00:54:24.375Z,77.00
2018-04-19T00:55:25.125Z,63.00
2018-04-19T00:56:25.873Z,50.00
2018-04-19T00:57:26.600Z,55.00
2018-04-19T00:58:27.338Z,54.00
2018-04-19T00:59:28.063Z,42.00
2018-04-19T01:00:28.788Z,60.00
2018-04-19T01:01:29.514Z,45.00
2018-04-19T01:02:30.240Z,66.00
2018-04-19T01:03:30.982Z,59.00
2018-04-19T01:04:31.704Z,51.00
2018-04-19T01:05:32.455Z,58.00
2018-04-19T01:06:33.200Z,47.00
2018-04-19T01:07:33.937Z,45.00
2018-04-19T01:08:34.662Z,64.00
2018-04-19T01:09:35.410Z,50.00
2018-04-19T01:10:36.147Z,53.00
2018-04-19T01:11:36.872Z,55.00
2018-04-19T01:12:37.617Z,58.00
2018-04-19T01:13:38.345Z,51.00
2018-04-19T01:14:39.069Z,50.00
2018-04-19T01:15:39.796Z,55.00
2018-04-19T01:16:40.558Z,61.00
2018-04-19T01:17:41.287Z,45.00
2018-04-19T01:18:42.021Z,53.00
2018-04-19T01:19:42.798Z,47.00
2018-04-19T01:20:43.522Z,56.00
2018-04-19T01:21:44.269Z,45.00
2018-04-19T01:22:45.021Z,46.00
2018-04-19T01:23:45.781Z,59.00
2018-04-19T01:24:46.552Z,48.00
2018-04-19T01:25:47.278Z,45.00
2018-04-19T01:26:48.006Z,59.00
2018-04-19T01:27:48.766Z,46.00
2018-04-19T01:28:49.490Z,50.00
2018-04-19T01:29:50.229Z,47.00
2018-04-19T01:30:50.952Z,61.00
2018-04-19T01:31:51.676Z,56.00
2018-04-19T01:32:52.401Z,50.00
2018-04-19T01:33:53.130Z,54.00
2018-04-19T01:34:53.845Z,54.00
2018-04-19T01:35:54.560Z,50.00
2018-04-19T01:36:55.285Z,57.00
2018-04-19T01:37:56.001Z,51.00
2018-04-19T01:38:56.716Z,37.00
2018-04-19T01:39:57.431Z,55.00
2018-04-19T01:40:58.146Z,51.00
2018-04-19T01:41:58.869Z,39.00
2018-04-19T01:42:59.575Z,45.00
2018-04-19T01:44:00.290Z,38.00
2018-04-19T01:45:01.018Z,51.00
2018-04-19T01:46:01.733Z,42.00
2018-04-19T01:47:02.451Z,49.00
2018-04-19T01:48:03.175Z,45.00
2018-04-19T01:49:03.890Z,35.00
2018-04-19T01:50:04.605Z,49.00
2018-04-19T01:51:05.321Z,60.00
2018-04-19T01:52:06.035Z,42.00
2018-04-19T01:53:06.753Z,27.00
2018-04-19T01:54:07.464Z,39.00
2018-04-19T01:55:08.179Z,43.00
2018-04-19T01:56:08.894Z,38.00
2018-04-19T01:57:09.609Z,45.00
2018-04-19T01:58:10.336Z,31.00
2018-04-19T01:59:11.051Z,44.00
2018-04-19T02:00:11.768Z,39.00
2018-04-19T02:01:12.483Z,35.00
2018-04-19T02:02:13.198Z,32.00
2018-04-19T02:03:13.917Z,31.00
2018-04-19T02:04:14.627Z,26.00
2018-04-19T02:05:15.352Z,37.00
2018-04-19T02:06:16.069Z,37.00
2018-04-19T02:07:16.784Z,37.00
2018-04-19T02:08:17.500Z,39.00
2018-04-19T02:09:18.215Z,37.00
2018-04-19T02:10:18.943Z,35.00
2018-04-19T02:11:19.660Z,35.00
2018-04-19T02:12:20.385Z,40.00
2018-04-19T02:13:21.100Z,35.00
2018-04-19T02:14:21.816Z,37.00
2018-04-19T02:15:22.528Z,40.00
2018-04-19T02:16:23.240Z,31.00
2018-04-19T02:17:23.953Z,37.00
2018-04-19T02:18:24.667Z,32.00
2018-04-19T02:19:25.393Z,33.00
2018-04-19T02:20:26.106Z,39.00
2018-04-19T02:21:26.820Z,35.00
2018-04-19T02:22:27.533Z,40.00
2018-04-19T02:23:28.248Z,26.00
2018-04-19T02:24:28.961Z,38.00
2018-04-19T02:25:29.674Z,46.00
2018-04-19T02:26:30.402Z,36.00
2018-04-19T02:27:31.116Z,35.00
2018-04-19T02:28:31.834Z,33.00
2018-04-19T02:29:32.548Z,39.00
2018-04-19T02:30:33.274Z,42.00
2018-04-19T02:31:33.989Z,29.00
2018-04-19T02:32:34.714Z,32.00
2018-04-19T02:33:35.427Z,40.00
2018-04-19T02:34:36.154Z,38.00
2018-04-19T02:35:36.866Z,25.00
2018-04-19T02:36:37.571Z,39.00
2018-04-19T02:37:38.285Z,36.00
2018-04-19T02:38:38.999Z,38.00
2018-04-19T02:39:39.718Z,39.00
2018-04-19T02:40:40.428Z,33.00
2018-04-19T02:41:41.142Z,45.00
2018-04-19T02:42:41.855Z,37.00
2018-04-19T02:43:42.568Z,39.00
2018-04-19T02:44:43.282Z,31.00
2018-04-19T02:45:44.011Z,25.00
2018-04-19T02:46:44.738Z,45.00
2018-04-19T02:47:45.464Z,38.00
2018-04-19T02:48:46.176Z,30.00
2018-04-19T02:49:46.893Z,36.00
2018-04-19T02:50:47.602Z,38.00
2018-04-19T02:51:48.317Z,32.00
2018-04-19T02:52:49.030Z,38.00
2018-04-19T02:53:49.743Z,43.00
2018-04-19T02:54:50.458Z,38.00
2018-04-19T02:55:51.171Z,32.00
2018-04-19T02:56:51.885Z,35.00
2018-04-19T02:57:52.599Z,29.00
2018-04-19T02:58:53.311Z,27.00
2018-04-19T02:59:54.025Z,42.00
2018-04-19T03:00:54.739Z,48.00
2018-04-19T03:01:55.456Z,26.00
2018-04-19T03:02:56.165Z,31.00
2018-04-19T03:03:56.900Z,38.00
2018-04-19T03:04:57.609Z,34.00
2018-04-19T03:05:58.333Z,40.00
2018-04-19T03:06:59.060Z,33.00
2018-04-19T03:07:59.791Z,38.00
2018-04-19T03:09:00.517Z,31.00
2018-04-19T03:10:01.241Z,31.00
2018-04-19T03:11:01.965Z,36.00
2018-04-19T03:12:02.684Z,40.00
2018-04-19T03:13:03.396Z,30.00
2018-04-19T03:14:04.117Z,47.00
2018-04-19T03:15:04.836Z,35.00
2018-04-19T03:16:05.560Z,30.00
2018-04-19T03:17:06.274Z,42.00
2018-04-19T03:18:07.004Z,32.00
2018-04-19T03:19:07.719Z,38.00
2018-04-19T03:20:08.435Z,31.00
2018-04-19T03:21:09.150Z,31.00
2018-04-19T03:22:09.863Z,31.00
2018-04-19T03:23:10.578Z,33.00
2018-04-19T03:24:11.292Z,30.00
2018-04-19T03:25:12.004Z,37.00
2018-04-19T03:26:12.729Z,38.00
2018-04-19T03:27:13.456Z,31.00
2018-04-19T03:28:14.171Z,33.00
2018-04-19T03:29:14.885Z,28.00
2018-04-19T03:30:15.613Z,26.00
2018-04-19T03:31:16.327Z,36.00
2018-04-19T03:32:17.042Z,28.00
2018-04-19T03:33:17.754Z,49.00
2018-04-19T03:34:18.468Z,34.00
2018-04-19T03:35:19.182Z,31.00
2018-04-19T03:36:19.894Z,48.00
2018-04-19T03:37:20.621Z,55.00
2018-04-19T03:38:21.334Z,45.00
2018-04-19T03:39:22.049Z,39.00
2018-04-19T03:40:22.763Z,41.00
2018-04-19T03:41:23.494Z,36.00
2018-04-19T03:42:24.209Z,43.00
2018-04-19T03:43:24.925Z,35.00
2018-04-19T03:44:25.650Z,38.00
2018-04-19T03:45:26.363Z,35.00
2018-04-19T03:46:27.077Z,35.00
2018-04-19T03:47:27.790Z,43.00
2018-04-19T03:48:28.504Z,43.00
2018-04-19T03:49:29.221Z,49.00
2018-04-19T03:50:29.948Z,55.00
2018-04-19T03:51:30.669Z,58.00
2018-04-19T03:52:31.386Z,40.00
2018-04-19T03:53:32.100Z,46.00
2018-04-19T03:54:32.814Z,53.00
2018-04-19T03:55:33.528Z,48.00
2018-04-19T03:56:34.253Z,46.00
2018-04-19T03:57:34.982Z,41.00
2018-04-19T03:58:35.705Z,41.00
2018-04-19T03:59:36.422Z,69.00
2018-04-19T04:00:37.148Z,49.00
2018-04-19T04:01:37.861Z,47.00
2018-04-19T04:02:38.575Z,39.00
2018-04-19T04:03:39.309Z,46.00
2018-04-19T04:04:40.030Z,41.00
2018-04-19T04:05:40.746Z,54.00
2018-04-19T04:06:41.462Z,54.00
2018-04-19T04:07:42.178Z,44.00
2018-04-19T04:08:42.893Z,45.00
2018-04-19T04:09:43.608Z,54.00
2018-04-19T04:10:44.322Z,50.00
2018-04-19T04:11:45.037Z,47.00
2018-04-19T04:12:45.754Z,43.00
2018-04-19T04:13:46.478Z,41.00
2018-04-19T04:14:47.209Z,39.00
2018-04-19T04:15:47.933Z,43.00
2018-04-19T04:16:48.648Z,51.00
2018-04-19T04:17:49.363Z,38.00
2018-04-19T04:18:50.079Z,44.00
2018-04-19T04:19:50.794Z,67.00
2018-04-19T04:20:51.511Z,32.00
2018-04-19T04:21:52.226Z,40.00
2018-04-19T04:22:52.941Z,53.00
2018-04-19T04:23:53.657Z,33.00
2018-04-19T04:24:54.386Z,53.00
2018-04-19T04:25:55.116Z,41.00
2018-04-19T04:26:55.830Z,39.00
2018-04-19T04:27:56.548Z,42.00
2018-04-19T04:28:57.263Z,30.00
2018-04-19T04:29:57.979Z,39.00
2018-04-19T04:30:58.697Z,51.00
2018-04-19T04:31:59.415Z,41.00
2018-04-19T04:33:00.132Z,35.00
2018-04-19T04:34:00.849Z,42.00
2018-04-19T04:35:01.565Z,37.00
2018-04-19T04:36:02.282Z,47.00
2018-04-19T04:37:03.000Z,50.00
2018-04-19T04:38:03.716Z,41.00
2018-04-19T04:39:04.432Z,45.00
2018-04-19T04:40:05.148Z,56.00
2018-04-19T04:41:05.864Z,56.00
2018-04-19T04:42:06.588Z,46.00
2018-04-19T04:43:07.302Z,30.00
2018-04-19T04:44:08.017Z,40.00
2018-04-19T04:45:08.748Z,45.00
2018-04-19T04:46:09.474Z,40.00
2018-04-19T04:47:10.193Z,51.00
2018-04-19T04:48:10.912Z,50.00
2018-04-19T04:49:11.644Z,39.00
2018-04-19T04:50:12.373Z,47.00
2018-04-19T04:51:13.098Z,48.00
2018-04-19T04:52:13.821Z,39.00
2018-04-19T04:53:14.553Z,43.00
2018-04-19T04:54:15.270Z,46.00
2018-04-19T04:55:16.000Z,34.00
2018-04-19T04:56:16.717Z,41.00
2018-04-19T04:57:17.436Z,45.00
2018-04-19T04:58:18.166Z,39.00
2018-04-19T04:59:18.884Z,43.00
2018-04-19T05:00:19.613Z,60.00
2018-04-19T05:01:20.331Z,38.00
2018-04-19T05:02:21.049Z,45.00
2018-04-19T05:03:21.770Z,43.00
2018-04-19T05:04:22.492Z,42.00
2018-04-19T05:05:23.212Z,43.00
2018-04-19T05:06:23.929Z,40.00
2018-04-19T05:07:24.648Z,44.00
2018-04-19T05:08:25.366Z,35.00
2018-04-19T05:09:26.081Z,37.00
2018-04-19T05:10:26.801Z,42.00
2018-04-19T05:11:27.530Z,52.00
2018-04-19T05:12:28.249Z,39.00
2018-04-19T05:13:28.967Z,36.00
2018-04-19T05:14:29.689Z,46.00
2018-04-19T05:15:30.400Z,36.00
2018-04-19T05:16:31.119Z,23.00
2018-04-19T05:17:31.838Z,31.00
2018-04-19T05:18:32.555Z,34.00
2018-04-19T05:19:33.273Z,50.00
2018-04-19T05:20:34.004Z,48.00
2018-04-19T05:21:34.723Z,46.00
2018-04-19T05:22:35.443Z,54.00
2018-04-19T05:23:36.161Z,44.00
2018-04-19T05:24:36.891Z,50.00
2018-04-19T05:25:37.622Z,45.00
2018-04-19T05:26:38.342Z,43.00
2018-04-19T05:27:39.060Z,38.00
2018-04-19T05:28:39.788Z,43.00
2018-04-19T05:29:40.519Z,38.00
2018-04-19T05:30:41.266Z,42.00
2018-04-19T05:31:42.020Z,39.00
2018-04-19T05:32:42.717Z,38.00
2018-04-19T05:33:43.435Z,46.00
2018-04-19T05:34:44.154Z,31.00
2018-04-19T05:35:44.877Z,35.00
2018-04-19T05:36:45.594Z,34.00
2018-04-19T05:37:46.324Z,48.00
2018-04-19T05:38:47.044Z,37.00
2018-04-19T05:39:47.762Z,39.00
2018-04-19T05:40:48.481Z,40.00
2018-04-19T05:41:49.197Z,37.00
2018-04-19T05:42:49.919Z,31.00
2018-04-19T05:43:50.638Z,31.00
2018-04-19T05:44:51.356Z,34.00
2018-04-19T05:45:52.075Z,41.00
2018-04-19T05:46:52.793Z,28.00
2018-04-19T05:47:53.526Z,42.00
2018-04-19T05:48:54.257Z,36.00
2018-04-19T05:49:54.976Z,26.00
2018-04-19T05:50:55.712Z,31.00
2018-04-19T05:51:56.432Z,33.00
2018-04-19T05:52:57.147Z,37.00
2018-04-19T05:53:57.878Z,37.00
2018-04-19T05:54:58.595Z,45.00
2018-04-19T05:55:59.328Z,29.00
2018-04-19T05:57:00.047Z,55.00
2018-04-19T05:58:00.765Z,39.00
2018-04-19T05:59:01.497Z,43.00
2018-04-19T06:00:02.216Z,46.00
2018-04-19T06:01:02.950Z,27.00
2018-04-19T06:02:03.682Z,46.00
2018-04-19T06:03:04.441Z,39.00
2018-04-19T06:04:05.126Z,38.00
2018-04-19T06:05:05.846Z,46.00
2018-04-19T06:06:06.562Z,45.00
2018-04-19T06:07:07.283Z,33.00
2018-04-19T06:08:08.016Z,35.00
2018-04-19T06:09:08.734Z,29.00
2018-04-19T06:10:09.454Z,27.00
2018-04-19T06:11:10.178Z,38.00
2018-04-19T06:12:10.909Z,33.00
2018-04-19T06:13:11.631Z,27.00
2018-04-19T06:14:12.352Z,29.00
2018-04-19T06:15:13.076Z,27.00
2018-04-19T06:16:13.794Z,48.00
2018-04-19T06:17:14.515Z,27.00
2018-04-19T06:18:15.250Z,41.00
2018-04-19T06:19:15.969Z,28.00
2018-04-19T06:20:16.696Z,33.00
2018-04-19T06:21:17.427Z,43.00
2018-04-19T06:22:18.148Z,40.00
2018-04-19T06:23:18.880Z,39.00
2018-04-19T06:24:19.600Z,32.00
2018-04-19T06:25:20.324Z,27.00
2018-04-19T06:26:21.046Z,28.00
2018-04-19T06:27:21.768Z,21.00
2018-04-19T06:28:22.500Z,48.00
2018-04-19T06:29:23.221Z,29.00
2018-04-19T06:30:23.980Z,28.00
2018-04-19T06:31:24.677Z,24.00
2018-04-19T06:32:25.399Z,33.00
2018-04-19T06:33:26.120Z,38.00
2018-04-19T06:34:26.855Z,46.00
2018-04-19T06:35:27.580Z,27.00
2018-04-19T06:36:28.303Z,30.00
2018-04-19T06:37:29.027Z,35.00
2018-04-19T06:38:29.751Z,25.00
2018-04-19T06:39:30.475Z,41.00
2018-04-19T06:40:31.199Z,33.00
2018-04-19T06:41:31.935Z,30.00
2018-04-19T06:42:32.648Z,33.00
2018-04-19T06:43:33.373Z,35.00
2018-04-19T06:44:34.100Z,33.00
2018-04-19T06:45:34.836Z,30.00
2018-04-19T06:46:35.560Z,33.00
2018-04-19T06:47:36.290Z,27.00
2018-04-19T06:48:37.018Z,37.00
2018-04-19T06:49:37.746Z,50.00
2018-04-19T06:50:38.472Z,29.00
2018-04-19T06:51:39.201Z,31.00
2018-04-19T06:52:39.930Z,28.00
2018-04-19T06:53:40.657Z,37.00
2018-04-19T06:54:41.386Z,26.00
2018-04-19T06:55:42.129Z,34.00
2018-04-19T06:56:42.882Z,24.00
2018-04-19T06:57:43.623Z,32.00
2018-04-19T06:58:44.374Z,35.00
2018-04-19T06:59:45.117Z,30.00
2018-04-19T07:00:45.850Z,25.00
2018-04-19T07:01:46.614Z,30.00
2018-04-19T07:02:47.336Z,20.00
2018-04-19T07:03:48.067Z,24.00
2018-04-19T07:04:48.802Z,51.00
2018-04-19T07:05:49.534Z,23.00
2018-04-19T07:06:50.269Z,32.00
2018-04-19T07:07:50.999Z,37.00
2018-04-19T07:08:51.742Z,31.00
2018-04-19T07:09:52.479Z,30.00
2018-04-19T07:10:53.211Z,25.00
2018-04-19T07:11:53.953Z,24.00
2018-04-19T07:12:54.685Z,26.00
2018-04-19T07:13:55.414Z,30.00
2018-04-19T07:14:56.156Z,41.00
2018-04-19T07:15:56.886Z,30.00
2018-04-19T07:16:57.621Z,32.00
2018-04-19T07:17:58.350Z,20.00
2018-04-19T07:18:59.091Z,25.00
2018-04-19T07:19:59.820Z,28.00
2018-04-19T07:21:00.552Z,34.00
2018-04-19T07:22:01.295Z,33.00
2018-04-19T07:23:02.029Z,27.00
2018-04-19T07:24:02.759Z,25.00
2018-04-19T07:25:03.487Z,21.00
2018-04-19T07:26:04.217Z,21.00
2018-04-19T07:27:04.960Z,20.00
2018-04-19T07:28:05.691Z,37.00
2018-04-19T07:29:06.422Z,21.00
2018-04-19T07:30:07.150Z,20.00
2018-04-19T07:31:07.881Z,26.00
2018-04-19T07:32:08.650Z,26.00
2018-04-19T07:33:09.345Z,28.00
2018-04-19T07:34:10.088Z,19.00
2018-04-19T07:35:10.834Z,25.00
2018-04-19T07:36:11.571Z,31.00
2018-04-19T07:37:12.308Z,27.00
2018-04-19T07:38:13.042Z,25.00
2018-04-19T07:39:13.787Z,22.00
2018-04-19T07:40:14.522Z,28.00
2018-04-19T07:41:15.252Z,31.00
2018-04-19T07:42:15.985Z,30.00
2018-04-19T07:43:16.719Z,23.00
2018-04-19T07:44:17.450Z,18.00
2018-04-19T07:45:18.183Z,19.00
2018-04-19T07:46:18.929Z,20.00
2018-04-19T07:47:19.662Z,21.00
2018-04-19T07:48:20.395Z,19.00
2018-04-19T07:49:21.130Z,30.00
2018-04-19T07:50:21.866Z,22.00
2018-04-19T07:51:22.602Z,24.00
2018-04-19T07:52:23.336Z,27.00
2018-04-19T07:53:24.071Z,28.00
2018-04-19T07:54:24.805Z,23.00
2018-04-19T07:55:25.539Z,32.00
2018-04-19T07:56:26.276Z,18.00
2018-04-19T07:57:27.009Z,25.00
2018-04-19T07:58:27.745Z,22.00
2018-04-19T07:59:28.492Z,18.00
2018-04-19T08:00:29.240Z,19.00
2018-04-19T08:01:29.976Z,18.00
2018-04-19T08:02:30.711Z,28.00
2018-04-19T08:03:31.459Z,20.00
2018-04-19T08:04:32.197Z,31.00
2018-04-19T08:05:32.936Z,17.00
2018-04-19T08:06:33.667Z,16.00
2018-04-19T08:07:34.406Z,17.00
2018-04-19T08:08:35.137Z,22.00
2018-04-19T08:09:35.874Z,25.00
2018-04-19T08:10:36.624Z,17.00
2018-04-19T08:11:37.373Z,22.00
2018-04-19T08:12:38.124Z,22.00
2018-04-19T08:13:38.857Z,20.00
2018-04-19T08:14:39.608Z,17.00
2018-04-19T08:15:40.345Z,23.00
2018-04-19T08:16:41.083Z,22.00
2018-04-19T08:17:41.837Z,29.00
2018-04-19T08:18:42.575Z,21.00
2018-04-19T08:19:43.326Z,19.00
2018-04-19T08:20:44.064Z,18.00
2018-04-19T08:21:44.816Z,24.00
2018-04-19T08:22:45.552Z,17.00
2018-04-19T08:23:46.294Z,16.00
2018-04-19T08:24:47.037Z,23.00
2018-04-19T08:25:47.784Z,14.00
2018-04-19T08:26:48.542Z,29.00
2018-04-19T08:27:49.284Z,20.00
2018-04-19T08:28:50.024Z,16.00
2018-04-19T08:29:50.764Z,20.00
2018-04-19T08:30:51.521Z,14.00
2018-04-19T08:31:52.266Z,24.00
2018-04-19T08:32:53.023Z,18.00
2018-04-19T08:33:53.763Z,13.00
2018-04-19T08:34:54.507Z,19.00
2018-04-19T08:35:55.257Z,18.00
2018-04-19T08:36:56.013Z,15.00
2018-04-19T08:37:56.772Z,19.00
2018-04-19T08:38:57.518Z,15.00
2018-04-19T08:39:58.273Z,26.00
2018-04-19T08:40:59.035Z,31.00
2018-04-19T08:41:59.784Z,16.00
2018-04-19T08:43:00.545Z,18.00
2018-04-19T08:44:01.290Z,20.00
2018-04-19T08:45:02.038Z,20.00
2018-04-19T08:46:02.783Z,34.00
2018-04-19T08:47:03.530Z,15.00
2018-04-19T08:48:04.288Z,15.00
2018-04-19T08:49:05.033Z,16.00
2018-04-19T08:50:05.780Z,16.00
2018-04-19T08:51:06.528Z,26.00
2018-04-19T08:52:07.289Z,14.00
2018-04-19T08:53:08.048Z,18.00
2018-04-19T08:54:08.810Z,16.00
2018-04-19T08:55:09.551Z,27.00
2018-04-19T08:56:10.294Z,16.00
2018-04-19T08:57:11.037Z,17.00
2018-04-19T08:58:11.785Z,25.00
2018-04-19T08:59:12.545Z,21.00
2018-04-19T09:00:13.286Z,21.00
2018-04-19T09:01:14.032Z,21.00
2018-04-19T09:02:14.779Z,21.00
2018-04-19T09:03:15.528Z,21.00
2018-04-19T09:04:16.274Z,28.00
2018-04-19T09:05:17.014Z,20.00
2018-04-19T09:06:17.757Z,17.00
2018-04-19T09:07:18.500Z,22.00
2018-04-19T09:08:19.247Z,25.00
2018-04-19T09:09:19.991Z,16.00
2018-04-19T09:10:20.732Z,17.00
2018-04-19T09:11:21.500Z,15.00
2018-04-19T09:12:22.246Z,23.00
2018-04-19T09:13:23.002Z,21.00
2018-04-19T09:14:23.748Z,21.00
2018-04-19T09:15:24.492Z,19.00
2018-04-19T09:16:25.249Z,15.00
2018-04-19T09:17:25.993Z,14.00
2018-04-19T09:18:26.750Z,22.00
2018-04-19T09:19:27.538Z,18.00
2018-04-19T09:20:28.237Z,17.00
2018-04-19T09:21:28.982Z,15.00
2018-04-19T09:22:29.725Z,17.00
2018-04-19T09:23:30.472Z,22.00
2018-04-19T09:24:31.219Z,23.00
2018-04-19T09:25:31.957Z,17.00
2018-04-19T09:26:32.704Z,25.00
2018-04-19T09:27:33.459Z,26.00
2018-04-19T09:28:34.215Z,16.00
2018-04-19T09:29:34.959Z,12.00
2018-04-19T09:30:35.703Z,13.00
2018-04-19T09:31:36.446Z,18.00
2018-04-19T09:32:37.191Z,20.00
2018-04-19T09:33:37.949Z,12.00
2018-04-19T09:34:38.690Z,12.00
2018-04-19T09:35:39.433Z,13.00
2018-04-19T09:36:40.175Z,17.00
2018-04-19T09:37:40.919Z,11.00
2018-04-19T09:38:41.663Z,14.00
2018-04-19T09:39:42.418Z,13.00
2018-04-19T09:40:43.162Z,15.00
2018-04-19T09:41:43.906Z,13.00
2018-04-19T09:42:44.652Z,13.00
2018-04-19T09:43:45.395Z,13.00
2018-04-19T09:44:46.139Z,12.00
2018-04-19T09:45:46.880Z,25.00
2018-04-19T09:46:47.624Z,19.00
2018-04-19T09:47:48.373Z,9.00
2018-04-19T09:48:49.120Z,12.00
2018-04-19T09:49:49.874Z,13.00
2018-04-19T09:50:50.630Z,10.00
2018-04-19T09:52:52.116Z,13.00
2018-04-19T09:53:52.911Z,10.00
2018-04-19T09:54:53.616Z,11.00
2018-04-19T09:55:54.358Z,17.00
2018-04-19T09:56:55.103Z,17.00
2018-04-19T09:57:55.843Z,11.00
2018-04-19T09:58:56.606Z,15.00
2018-04-19T09:59:57.329Z,9.00
2018-04-19T10:00:58.075Z,10.00
2018-04-19T10:01:58.814Z,10.00
2018-04-19T10:02:59.558Z,12.00
2018-04-19T10:04:00.296Z,8.00
2018-04-19T10:05:01.049Z,7.00
2018-04-19T10:06:01.794Z,18.00
2018-04-19T10:07:02.540Z,10.00
2018-04-19T10:08:03.294Z,12.00
2018-04-19T10:09:04.038Z,18.00
2018-04-19T10:10:04.795Z,9.00
2018-04-19T10:11:05.534Z,14.00
2018-04-19T10:12:06.287Z,8.00
2018-04-19T10:13:07.035Z,5.00
2018-04-19T10:14:07.771Z,9.00
2018-04-19T10:15:08.525Z,8.00
2018-04-19T10:16:09.301Z,6.00
2018-04-19T10:17:10.007Z,6.00
2018-04-19T10:18:10.745Z,8.00
2018-04-19T10:19:11.490Z,8.00
2018-04-19T10:20:12.247Z,11.00
2018-04-19T10:21:12.995Z,6.00
2018-04-19T10:22:13.729Z,7.00
2018-04-19T10:23:14.480Z,7.00
2018-04-19T10:24:15.236Z,7.00
2018-04-19T10:25:15.976Z,5.00
2018-04-19T10:26:16.720Z,6.00
2018-04-19T10:27:17.480Z,14.00
2018-04-19T10:28:18.215Z,7.00
2018-04-19T10:29:18.955Z,20.00
2018-04-19T10:30:19.696Z,5.00
2018-04-19T10:31:20.434Z,6.00
2018-04-19T10:32:21.192Z,7.00
2018-04-19T10:33:21.934Z,7.00
2018-04-19T10:34:22.687Z,16.00
2018-04-19T10:35:23.427Z,10.00
2018-04-19T10:36:24.165Z,10.00
2018-04-19T10:37:24.914Z,14.00
2018-04-19T10:38:25.654Z,5.00
2018-04-19T10:39:26.395Z,5.00
2018-04-19T10:40:27.134Z,6.00
2018-04-19T10:41:27.877Z,11.00
2018-04-19T10:42:28.634Z,16.00
2018-04-19T10:43:29.374Z,6.00
2018-04-19T10:44:30.117Z,4.00
2018-04-19T10:45:30.859Z,5.00
2018-04-19T10:46:31.600Z,5.00
2018-04-19T10:47:32.346Z,4.00
2018-04-19T10:48:33.082Z,6.00
2018-04-19T10:49:33.825Z,6.00
2018-04-19T10:50:34.571Z,10.00
2018-04-19T10:51:35.320Z,10.00
2018-04-19T10:52:36.062Z,8.00
2018-04-19T10:53:36.803Z,8.00
2018-04-19T10:54:37.543Z,6.00
2018-04-19T10:55:38.285Z,7.00
2018-04-19T10:56:39.035Z,7.00
2018-04-19T10:57:39.778Z,4.00
2018-04-19T10:58:40.517Z,4.00
2018-04-19T10:59:41.261Z,11.00
2018-04-19T11:00:42.003Z,13.00
2018-04-19T11:01:42.745Z,11.00
2018-04-19T11:02:43.486Z,5.00
2018-04-19T11:03:44.227Z,5.00
2018-04-19T11:04:44.969Z,12.00
2018-04-19T11:05:45.724Z,6.00
2018-04-19T11:06:46.462Z,12.00
2018-04-19T11:07:47.217Z,6.00
2018-04-19T11:08:47.955Z,7.00
2018-04-19T11:09:48.711Z,11.00
2018-04-19T11:10:49.452Z,15.00
2018-04-19T11:11:50.194Z,5.00
2018-04-19T11:12:50.939Z,7.00
2018-04-19T11:13:51.675Z,12.00
2018-04-19T11:14:52.417Z,5.00
2018-04-19T11:15:53.177Z,13.00
2018-04-19T11:16:53.909Z,6.00
2018-04-19T11:17:54.649Z,4.00
2018-04-19T11:18:55.389Z,7.00
2018-04-19T11:19:56.131Z,12.00
2018-04-19T11:20:56.872Z,5.00
2018-04-19T11:21:57.617Z,5.00
2018-04-19T11:22:58.355Z,7.00
2018-04-19T11:23:59.096Z,7.00
2018-04-19T11:24:59.839Z,13.00
2018-04-19T11:26:00.575Z,9.00
2018-04-19T11:27:01.316Z,7.00
2018-04-19T11:28:02.054Z,20.00
2018-04-19T11:29:02.792Z,11.00
2018-04-19T11:30:03.541Z,7.00
2018-04-19T11:31:04.292Z,12.00
2018-04-19T11:32:05.035Z,11.00
2018-04-19T11:33:05.783Z,8.00
2018-04-19T11:34:06.535Z,12.00
2018-04-19T11:35:07.279Z,11.00
2018-04-19T11:36:08.029Z,13.00
2018-04-19T11:37:08.767Z,8.00
2018-04-19T11:38:09.511Z,21.00
2018-04-19T11:39:10.263Z,7.00
2018-04-19T11:40:10.997Z,11.00
2018-04-19T11:41:11.735Z,9.00
2018-04-19T11:42:12.480Z,13.00
2018-04-19T11:43:13.214Z,11.00
2018-04-19T11:44:13.962Z,18.00
2018-04-19T11:45:14.700Z,13.00
2018-04-19T11:46:15.437Z,8.00
2018-04-19T11:47:16.177Z,10.00
2018-04-19T11:48:16.915Z,8.00
2018-04-19T11:49:17.655Z,14.00
2018-04-19T11:50:18.394Z,11.00
2018-04-19T11:51:19.145Z,13.00
2018-04-19T11:52:19.880Z,7.00
2018-04-19T11:53:20.617Z,9.00
2018-04-19T11:54:21.359Z,10.00
2018-04-19T11:55:22.099Z,18.00
2018-04-19T11:56:22.837Z,6.00
2018-04-19T11:57:23.576Z,12.00
2018-04-19T11:58:24.319Z,10.00
2018-04-19T11:59:25.064Z,22.00
2018-04-19T12:00:25.802Z,12.00
2018-04-19T12:01:26.540Z,12.00
2018-04-19T12:02:27.277Z,9.00
2018-04-19T12:03:28.015Z,17.00
2018-04-19T12:04:28.754Z,8.00
2018-04-19T12:05:29.505Z,10.00
2018-04-19T12:06:30.243Z,8.00
2018-04-19T12:07:31.004Z,10.00
2018-04-19T12:08:31.719Z,13.00
2018-04-19T12:09:32.460Z,10.00
2018-04-19T12:10:33.210Z,6.00
2018-04-19T12:11:33.951Z,10.00
2018-04-19T12:12:34.686Z,7.00
2018-04-19T12:13:35.486Z,11.00
2018-04-19T12:14:36.167Z,11.00
2018-04-19T12:15:36.904Z,12.00
2018-04-19T12:16:37.642Z,6.00
2018-04-19T12:17:38.384Z,9.00
2018-04-19T12:18:39.133Z,16.00
2018-04-19T12:19:39.870Z,13.00
2018-04-19T12:20:40.610Z,13.00
2018-04-19T12:21:41.347Z,9.00
2018-04-19T12:22:42.089Z,8.00
2018-04-19T12:23:42.837Z,8.00
2018-04-19T12:24:43.588Z,7.00
2018-04-19T12:25:44.325Z,7.00
2018-04-19T12:26:45.075Z,15.00
2018-04-19T12:27:45.814Z,10.00
2018-04-19T12:28:46.564Z,13.00
2018-04-19T12:29:47.305Z,6.00
2018-04-19T12:30:48.052Z,10.00
2018-04-19T12:31:48.791Z,12.00
2018-04-19T12:32:49.529Z,10.00
2018-04-19T12:33:50.269Z,11.00
2018-04-19T12:34:51.008Z,14.00
2018-04-19T12:35:51.757Z,6.00
2018-04-19T12:36:52.492Z,8.00
2018-04-19T12:37:53.233Z,10.00
2018-04-19T12:38:53.971Z,8.00
2018-04-19T12:39:54.706Z,6.00
2018-04-19T12:40:55.442Z,8.00
2018-04-19T12:41:56.180Z,5.00
2018-04-19T12:42:56.924Z,11.00
2018-04-19T12:43:57.680Z,5.00
2018-04-19T12:44:58.427Z,14.00
2018-04-19T12:45:59.164Z,6.00
2018-04-19T12:46:59.899Z,7.00
2018-04-19T12:48:00.638Z,6.00
2018-04-19T12:49:01.377Z,15.00
2018-04-19T12:50:02.118Z,7.00
2018-04-19T12:51:02.868Z,15.00
2018-04-19T12:52:03.607Z,32.00
2018-04-19T12:53:04.344Z,7.00
2018-04-19T12:54:05.085Z,12.00
2018-04-19T12:55:05.824Z,6.00
2018-04-19T12:56:06.577Z,13.00
2018-04-19T12:57:07.330Z,6.00
2018-04-19T12:58:08.070Z,18.00
2018-04-19T12:59:08.809Z,6.00
2018-04-19T13:00:09.551Z,7.00
2018-04-19T13:01:10.293Z,8.00
2018-04-19T13:02:11.034Z,7.00
2018-04-19T13:03:11.771Z,19.00
2018-04-19T13:04:12.518Z,8.00
2018-04-19T13:05:13.259Z,16.00
2018-04-19T13:06:14.002Z,11.00